Inuvik, Inuvik Airport (CYEV)

NameInuvik Airport
CityInuvik
CountryCanada
ICAOCYEV
IATAYEV
Altitude68 m
CoordinatesGoogle Map
Live Air TrafficLiveATC.net
METARCYEV 151200Z 00000KT 4SM -SN FEW012 BKN040 OVC083 M06/M07 A3006 RMK ST2SC4AC2 SLP188
2018-10-15 12:00:00 Wind: North (0°) 0 m/s - Visibility: 6437.36 m - Weather: Light Snow - Temperature: -6 °C - Dew point: -7 °C - Humidity: 92.7% - Pressure: 1017.95 hPa
Statistics

The table below shows the detailed information of all flights to/from Inuvik, Inuvik Airport (CYEV).